sensor_id;sensor_type;location;lat;lon;timestamp;P1;durP1;ratioP1;P2;durP2;ratioP2
12493;SDS011;8260;51.422;6.786;2022-08-11T00:01:53;5.55;;;2.75;;
12493;SDS011;8260;51.422;6.786;2022-08-11T00:04:22;3.55;;;2.47;;
12493;SDS011;8260;51.422;6.786;2022-08-11T00:06:51;4.57;;;2.70;;
12493;SDS011;8260;51.422;6.786;2022-08-11T00:09:21;3.90;;;2.70;;
12493;SDS011;8260;51.422;6.786;2022-08-11T00:11:50;4.28;;;2.60;;
12493;SDS011;8260;51.422;6.786;2022-08-11T00:14:24;4.68;;;2.30;;
12493;SDS011;8260;51.422;6.786;2022-08-11T00:17:05;2.92;;;2.42;;
12493;SDS011;8260;51.422;6.786;2022-08-11T00:19:36;5.68;;;2.72;;
12493;SDS011;8260;51.422;6.786;2022-08-11T00:22:24;4.55;;;2.70;;
12493;SDS011;8260;51.422;6.786;2022-08-11T00:24:55;5.55;;;2.50;;
12493;SDS011;8260;51.422;6.786;2022-08-11T00:27:31;4.68;;;2.53;;
12493;SDS011;8260;51.422;6.786;2022-08-11T00:30:00;3.33;;;2.42;;
12493;SDS011;8260;51.422;6.786;2022-08-11T00:32:31;3.95;;;2.35;;
12493;SDS011;8260;51.422;6.786;2022-08-11T00:35:00;3.40;;;2.80;;
12493;SDS011;8260;51.422;6.786;2022-08-11T00:37:49;5.93;;;2.70;;
12493;SDS011;8260;51.422;6.786;2022-08-11T00:40:22;3.13;;;2.20;;
12493;SDS011;8260;51.422;6.786;2022-08-11T00:42:54;6.47;;;2.88;;
12493;SDS011;8260;51.422;6.786;2022-08-11T00:45:26;3.42;;;2.20;;
12493;SDS011;8260;51.422;6.786;2022-08-11T00:47:59;4.90;;;2.80;;
12493;SDS011;8260;51.422;6.786;2022-08-11T00:50:34;2.83;;;2.60;;
12493;SDS011;8260;51.422;6.786;2022-08-11T00:53:07;3.67;;;2.38;;
12493;SDS011;8260;51.422;6.786;2022-08-11T01:01:20;4.72;;;2.58;;
12493;SDS011;8260;51.422;6.786;2022-08-11T01:06:44;4.00;;;2.83;;
12493;SDS011;8260;51.422;6.786;2022-08-11T01:09:27;3.25;;;2.80;;
12493;SDS011;8260;51.422;6.786;2022-08-11T01:20:29;4.22;;;2.80;;
12493;SDS011;8260;51.422;6.786;2022-08-11T01:23:30;5.65;;;2.80;;
12493;SDS011;8260;51.422;6.786;2022-08-11T01:26:19;3.65;;;2.95;;
12493;SDS011;8260;51.422;6.786;2022-08-11T01:37:32;3.67;;;3.00;;
12493;SDS011;8260;51.422;6.786;2022-08-11T01:40:15;3.50;;;3.00;;
12493;SDS011;8260;51.422;6.786;2022-08-11T01:45:54;3.28;;;2.70;;
12493;SDS011;8260;51.422;6.786;2022-08-11T01:48:28;4.50;;;2.83;;
12493;SDS011;8260;51.422;6.786;2022-08-11T01:51:06;5.30;;;2.80;;
12493;SDS011;8260;51.422;6.786;2022-08-11T01:53:46;5.20;;;2.90;;
12493;SDS011;8260;51.422;6.786;2022-08-11T01:56:23;4.97;;;2.97;;
12493;SDS011;8260;51.422;6.786;2022-08-11T01:58:56;3.30;;;2.75;;
12493;SDS011;8260;51.422;6.786;2022-08-11T02:01:31;4.90;;;2.88;;
12493;SDS011;8260;51.422;6.786;2022-08-11T02:04:06;3.35;;;2.75;;
12493;SDS011;8260;51.422;6.786;2022-08-11T02:06:39;5.38;;;2.90;;
12493;SDS011;8260;51.422;6.786;2022-08-11T02:09:25;3.75;;;2.70;;
12493;SDS011;8260;51.422;6.786;2022-08-11T02:11:58;5.07;;;3.13;;
12493;SDS011;8260;51.422;6.786;2022-08-11T02:14:30;4.18;;;2.80;;
12493;SDS011;8260;51.422;6.786;2022-08-11T02:17:05;4.15;;;2.95;;
12493;SDS011;8260;51.422;6.786;2022-08-11T02:19:37;3.30;;;3.00;;
12493;SDS011;8260;51.422;6.786;2022-08-11T02:22:29;6.35;;;3.03;;
12493;SDS011;8260;51.422;6.786;2022-08-11T02:25:21;3.72;;;2.95;;
12493;SDS011;8260;51.422;6.786;2022-08-11T02:27:52;3.53;;;2.90;;
12493;SDS011;8260;51.422;6.786;2022-08-11T02:30:23;3.97;;;3.10;;
12493;SDS011;8260;51.422;6.786;2022-08-11T02:32:54;3.70;;;2.92;;
12493;SDS011;8260;51.422;6.786;2022-08-11T02:35:45;4.43;;;3.00;;
12493;SDS011;8260;51.422;6.786;2022-08-11T02:38:16;4.25;;;2.67;;
12493;SDS011;8260;51.422;6.786;2022-08-11T02:40:48;4.53;;;2.85;;
12493;SDS011;8260;51.422;6.786;2022-08-11T02:43:21;3.53;;;3.22;;
12493;SDS011;8260;51.422;6.786;2022-08-11T02:45:53;3.17;;;2.75;;
12493;SDS011;8260;51.422;6.786;2022-08-11T02:48:35;5.15;;;2.90;;
12493;SDS011;8260;51.422;6.786;2022-08-11T02:51:28;3.65;;;2.55;;
12493;SDS011;8260;51.422;6.786;2022-08-11T02:54:00;4.63;;;2.80;;
12493;SDS011;8260;51.422;6.786;2022-08-11T02:56:36;2.67;;;2.40;;
12493;SDS011;8260;51.422;6.786;2022-08-11T02:59:14;7.38;;;2.90;;
12493;SDS011;8260;51.422;6.786;2022-08-11T03:02:04;6.35;;;2.83;;
12493;SDS011;8260;51.422;6.786;2022-08-11T03:04:39;5.53;;;2.78;;
12493;SDS011;8260;51.422;6.786;2022-08-11T03:07:18;3.92;;;2.65;;
12493;SDS011;8260;51.422;6.786;2022-08-11T03:09:57;6.82;;;3.20;;
12493;SDS011;8260;51.422;6.786;2022-08-11T03:12:29;4.05;;;3.03;;
12493;SDS011;8260;51.422;6.786;2022-08-11T03:15:19;3.78;;;2.92;;
12493;SDS011;8260;51.422;6.786;2022-08-11T03:18:11;4.57;;;3.10;;
12493;SDS011;8260;51.422;6.786;2022-08-11T03:20:44;6.13;;;3.00;;
12493;SDS011;8260;51.422;6.786;2022-08-11T03:23:13;3.22;;;2.90;;
12493;SDS011;8260;51.422;6.786;2022-08-11T03:25:48;5.03;;;3.30;;
12493;SDS011;8260;51.422;6.786;2022-08-11T03:28:23;5.50;;;2.95;;
12493;SDS011;8260;51.422;6.786;2022-08-11T03:30:55;3.85;;;2.97;;
12493;SDS011;8260;51.422;6.786;2022-08-11T03:33:25;5.57;;;3.47;;
12493;SDS011;8260;51.422;6.786;2022-08-11T03:36:17;3.50;;;2.85;;
12493;SDS011;8260;51.422;6.786;2022-08-11T03:38:51;6.35;;;3.05;;
12493;SDS011;8260;51.422;6.786;2022-08-11T03:41:27;5.38;;;3.50;;
12493;SDS011;8260;51.422;6.786;2022-08-11T03:44:39;3.42;;;2.97;;
12493;SDS011;8260;51.422;6.786;2022-08-11T03:47:17;4.57;;;3.05;;
12493;SDS011;8260;51.422;6.786;2022-08-11T03:49:55;3.22;;;2.67;;
12493;SDS011;8260;51.422;6.786;2022-08-11T03:52:27;4.22;;;3.00;;
12493;SDS011;8260;51.422;6.786;2022-08-11T03:54:59;6.10;;;3.42;;
12493;SDS011;8260;51.422;6.786;2022-08-11T04:00:32;4.15;;;3.05;;
12493;SDS011;8260;51.422;6.786;2022-08-11T04:08:56;3.88;;;3.08;;
12493;SDS011;8260;51.422;6.786;2022-08-11T04:11:44;3.97;;;3.08;;
12493;SDS011;8260;51.422;6.786;2022-08-11T04:17:33;4.20;;;3.20;;
12493;SDS011;8260;51.422;6.786;2022-08-11T04:20:17;6.22;;;3.35;;
12493;SDS011;8260;51.422;6.786;2022-08-11T04:22:53;4.20;;;2.85;;
12493;SDS011;8260;51.422;6.786;2022-08-11T04:25:34;5.75;;;3.50;;
12493;SDS011;8260;51.422;6.786;2022-08-11T04:28:36;4.07;;;2.80;;
12493;SDS011;8260;51.422;6.786;2022-08-11T04:31:24;5.78;;;3.13;;
12493;SDS011;8260;51.422;6.786;2022-08-11T04:34:26;4.28;;;3.05;;
12493;SDS011;8260;51.422;6.786;2022-08-11T04:37:08;5.15;;;2.90;;
12493;SDS011;8260;51.422;6.786;2022-08-11T04:40:00;3.00;;;2.70;;
12493;SDS011;8260;51.422;6.786;2022-08-11T04:45:35;5.43;;;3.35;;
12493;SDS011;8260;51.422;6.786;2022-08-11T04:48:18;4.25;;;3.15;;
12493;SDS011;8260;51.422;6.786;2022-08-11T04:51:20;8.95;;;4.20;;
12493;SDS011;8260;51.422;6.786;2022-08-11T04:54:13;6.35;;;4.32;;
12493;SDS011;8260;51.422;6.786;2022-08-11T04:57:02;5.50;;;3.33;;
12493;SDS011;8260;51.422;6.786;2022-08-11T05:00:00;5.10;;;4.03;;
12493;SDS011;8260;51.422;6.786;2022-08-11T05:02:53;5.72;;;3.70;;
12493;SDS011;8260;51.422;6.786;2022-08-11T05:05:33;6.93;;;4.30;;
12493;SDS011;8260;51.422;6.786;2022-08-11T05:12:28;7.65;;;3.95;;
12493;SDS011;8260;51.422;6.786;2022-08-11T05:14:59;6.40;;;4.07;;
12493;SDS011;8260;51.422;6.786;2022-08-11T05:17:56;5.85;;;3.42;;
12493;SDS011;8260;51.422;6.786;2022-08-11T05:20:46;5.55;;;3.90;;
12493;SDS011;8260;51.422;6.786;2022-08-11T05:23:33;6.20;;;4.00;;
12493;SDS011;8260;51.422;6.786;2022-08-11T05:26:20;6.22;;;4.15;;
12493;SDS011;8260;51.422;6.786;2022-08-11T05:29:26;5.68;;;4.00;;
12493;SDS011;8260;51.422;6.786;2022-08-11T05:32:14;6.63;;;4.18;;
12493;SDS011;8260;51.422;6.786;2022-08-11T05:35:02;6.93;;;3.53;;
12493;SDS011;8260;51.422;6.786;2022-08-11T05:37:33;7.85;;;4.10;;
12493;SDS011;8260;51.422;6.786;2022-08-11T05:40:05;6.28;;;3.63;;
12493;SDS011;8260;51.422;6.786;2022-08-11T05:42:54;8.35;;;4.30;;
12493;SDS011;8260;51.422;6.786;2022-08-11T05:45:42;9.38;;;4.60;;
12493;SDS011;8260;51.422;6.786;2022-08-11T05:48:32;4.78;;;3.95;;
12493;SDS011;8260;51.422;6.786;2022-08-11T05:51:19;4.90;;;3.28;;
12493;SDS011;8260;51.422;6.786;2022-08-11T05:54:20;10.38;;;4.10;;
12493;SDS011;8260;51.422;6.786;2022-08-11T05:57:07;6.57;;;3.92;;
12493;SDS011;8260;51.422;6.786;2022-08-11T05:59:58;7.32;;;4.28;;
12493;SDS011;8260;51.422;6.786;2022-08-11T06:02:28;5.63;;;4.13;;
12493;SDS011;8260;51.422;6.786;2022-08-11T06:04:57;9.60;;;4.18;;
12493;SDS011;8260;51.422;6.786;2022-08-11T06:07:26;5.80;;;4.15;;
12493;SDS011;8260;51.422;6.786;2022-08-11T06:10:23;6.47;;;3.97;;
12493;SDS011;8260;51.422;6.786;2022-08-11T06:12:52;5.65;;;3.85;;
12493;SDS011;8260;51.422;6.786;2022-08-11T06:15:22;7.22;;;4.35;;
12493;SDS011;8260;51.422;6.786;2022-08-11T06:17:53;8.40;;;4.47;;
12493;SDS011;8260;51.422;6.786;2022-08-11T06:20:22;8.50;;;3.85;;
12493;SDS011;8260;51.422;6.786;2022-08-11T06:22:54;5.40;;;3.70;;
12493;SDS011;8260;51.422;6.786;2022-08-11T06:25:28;5.80;;;3.67;;
12493;SDS011;8260;51.422;6.786;2022-08-11T06:27:57;10.60;;;4.20;;
12493;SDS011;8260;51.422;6.786;2022-08-11T06:30:32;12.15;;;4.13;;
12493;SDS011;8260;51.422;6.786;2022-08-11T06:33:03;5.55;;;3.75;;
12493;SDS011;8260;51.422;6.786;2022-08-11T06:35:35;8.23;;;4.53;;
12493;SDS011;8260;51.422;6.786;2022-08-11T06:38:07;10.70;;;4.28;;
12493;SDS011;8260;51.422;6.786;2022-08-11T06:40:37;7.50;;;3.80;;
12493;SDS011;8260;51.422;6.786;2022-08-11T06:43:10;9.90;;;4.57;;
12493;SDS011;8260;51.422;6.786;2022-08-11T06:45:47;8.23;;;4.22;;
12493;SDS011;8260;51.422;6.786;2022-08-11T06:48:21;7.55;;;4.70;;
12493;SDS011;8260;51.422;6.786;2022-08-11T06:50:50;9.30;;;4.25;;
12493;SDS011;8260;51.422;6.786;2022-08-11T06:53:38;11.18;;;4.75;;
12493;SDS011;8260;51.422;6.786;2022-08-11T06:56:24;5.97;;;4.10;;
12493;SDS011;8260;51.422;6.786;2022-08-11T06:59:37;11.13;;;4.43;;
12493;SDS011;8260;51.422;6.786;2022-08-11T07:02:25;9.13;;;4.45;;
12493;SDS011;8260;51.422;6.786;2022-08-11T07:04:59;10.85;;;4.70;;
12493;SDS011;8260;51.422;6.786;2022-08-11T07:10:53;9.23;;;4.50;;
12493;SDS011;8260;51.422;6.786;2022-08-11T07:13:43;9.05;;;4.18;;
12493;SDS011;8260;51.422;6.786;2022-08-11T07:16:30;6.57;;;3.80;;
12493;SDS011;8260;51.422;6.786;2022-08-11T07:19:02;5.93;;;4.50;;
12493;SDS011;8260;51.422;6.786;2022-08-11T07:21:50;6.68;;;4.15;;
12493;SDS011;8260;51.422;6.786;2022-08-11T07:24:38;8.32;;;4.18;;
12493;SDS011;8260;51.422;6.786;2022-08-11T07:27:39;11.18;;;3.83;;
12493;SDS011;8260;51.422;6.786;2022-08-11T07:30:29;7.78;;;4.13;;
12493;SDS011;8260;51.422;6.786;2022-08-11T07:33:00;10.77;;;4.15;;
12493;SDS011;8260;51.422;6.786;2022-08-11T07:35:30;7.63;;;3.60;;
12493;SDS011;8260;51.422;6.786;2022-08-11T07:38:06;8.32;;;4.32;;
12493;SDS011;8260;51.422;6.786;2022-08-11T07:40:35;8.20;;;4.32;;
12493;SDS011;8260;51.422;6.786;2022-08-11T07:43:03;12.77;;;4.60;;
12493;SDS011;8260;51.422;6.786;2022-08-11T07:45:33;8.38;;;4.07;;
12493;SDS011;8260;51.422;6.786;2022-08-11T07:48:19;7.20;;;3.67;;
12493;SDS011;8260;51.422;6.786;2022-08-11T07:51:06;8.18;;;4.38;;
12493;SDS011;8260;51.422;6.786;2022-08-11T07:53:53;8.52;;;4.20;;
12493;SDS011;8260;51.422;6.786;2022-08-11T07:56:30;7.40;;;4.18;;
12493;SDS011;8260;51.422;6.786;2022-08-11T07:59:19;5.13;;;4.15;;
12493;SDS011;8260;51.422;6.786;2022-08-11T08:02:26;7.75;;;4.10;;
12493;SDS011;8260;51.422;6.786;2022-08-11T08:05:12;8.70;;;4.28;;
12493;SDS011;8260;51.422;6.786;2022-08-11T08:07:59;6.60;;;4.20;;
12493;SDS011;8260;51.422;6.786;2022-08-11T08:10:47;7.88;;;4.40;;
12493;SDS011;8260;51.422;6.786;2022-08-11T08:13:33;10.43;;;4.00;;
12493;SDS011;8260;51.422;6.786;2022-08-11T08:16:20;7.45;;;3.88;;
12493;SDS011;8260;51.422;6.786;2022-08-11T08:19:07;6.38;;;4.32;;
12493;SDS011;8260;51.422;6.786;2022-08-11T08:21:38;6.07;;;4.15;;
12493;SDS011;8260;51.422;6.786;2022-08-11T08:24:10;5.75;;;3.72;;
12493;SDS011;8260;51.422;6.786;2022-08-11T08:26:41;6.20;;;3.50;;
12493;SDS011;8260;51.422;6.786;2022-08-11T08:29:25;8.32;;;3.55;;
12493;SDS011;8260;51.422;6.786;2022-08-11T08:32:12;4.55;;;3.85;;
12493;SDS011;8260;51.422;6.786;2022-08-11T08:34:42;8.57;;;4.30;;
12493;SDS011;8260;51.422;6.786;2022-08-11T08:37:11;10.13;;;3.88;;
12493;SDS011;8260;51.422;6.786;2022-08-11T08:40:01;7.07;;;3.85;;
12493;SDS011;8260;51.422;6.786;2022-08-11T08:42:31;5.32;;;3.70;;
12493;SDS011;8260;51.422;6.786;2022-08-11T08:45:09;6.13;;;3.78;;
12493;SDS011;8260;51.422;6.786;2022-08-11T08:47:39;8.88;;;4.00;;
12493;SDS011;8260;51.422;6.786;2022-08-11T08:50:09;8.90;;;3.88;;
12493;SDS011;8260;51.422;6.786;2022-08-11T08:52:44;6.18;;;3.67;;
12493;SDS011;8260;51.422;6.786;2022-08-11T08:55:15;10.60;;;4.40;;
12493;SDS011;8260;51.422;6.786;2022-08-11T08:57:47;6.72;;;3.92;;
12493;SDS011;8260;51.422;6.786;2022-08-11T09:00:16;4.20;;;3.53;;
12493;SDS011;8260;51.422;6.786;2022-08-11T09:02:48;4.70;;;3.55;;
12493;SDS011;8260;51.422;6.786;2022-08-11T09:05:17;7.13;;;3.75;;
12493;SDS011;8260;51.422;6.786;2022-08-11T09:07:46;5.97;;;3.92;;
12493;SDS011;8260;51.422;6.786;2022-08-11T09:10:18;15.60;;;4.00;;
12493;SDS011;8260;51.422;6.786;2022-08-11T09:12:48;9.15;;;4.00;;
12493;SDS011;8260;51.422;6.786;2022-08-11T09:15:17;6.15;;;4.00;;
12493;SDS011;8260;51.422;6.786;2022-08-11T09:17:46;3.95;;;3.47;;
12493;SDS011;8260;51.422;6.786;2022-08-11T09:20:16;4.30;;;3.58;;
12493;SDS011;8260;51.422;6.786;2022-08-11T09:22:45;5.03;;;3.80;;
12493;SDS011;8260;51.422;6.786;2022-08-11T09:25:54;7.35;;;3.63;;
12493;SDS011;8260;51.422;6.786;2022-08-11T09:28:42;4.40;;;3.35;;
12493;SDS011;8260;51.422;6.786;2022-08-11T09:31:12;5.03;;;3.75;;
12493;SDS011;8260;51.422;6.786;2022-08-11T09:33:40;4.45;;;3.83;;
12493;SDS011;8260;51.422;6.786;2022-08-11T09:36:11;3.88;;;3.47;;
12493;SDS011;8260;51.422;6.786;2022-08-11T09:38:57;5.80;;;3.97;;
12493;SDS011;8260;51.422;6.786;2022-08-11T09:41:45;4.78;;;3.40;;
12493;SDS011;8260;51.422;6.786;2022-08-11T09:44:29;7.10;;;3.55;;
12493;SDS011;8260;51.422;6.786;2022-08-11T09:47:18;8.05;;;4.00;;
12493;SDS011;8260;51.422;6.786;2022-08-11T09:49:49;4.88;;;3.35;;
12493;SDS011;8260;51.422;6.786;2022-08-11T09:52:19;6.00;;;3.83;;
12493;SDS011;8260;51.422;6.786;2022-08-11T09:54:49;6.55;;;3.63;;
12493;SDS011;8260;51.422;6.786;2022-08-11T09:57:18;4.97;;;3.50;;
12493;SDS011;8260;51.422;6.786;2022-08-11T10:00:07;5.63;;;3.10;;
12493;SDS011;8260;51.422;6.786;2022-08-11T10:02:39;5.82;;;3.90;;
12493;SDS011;8260;51.422;6.786;2022-08-11T10:05:08;7.70;;;3.95;;
12493;SDS011;8260;51.422;6.786;2022-08-11T10:07:55;3.67;;;3.38;;
12493;SDS011;8260;51.422;6.786;2022-08-11T10:10:24;4.68;;;3.63;;
12493;SDS011;8260;51.422;6.786;2022-08-11T10:12:55;4.72;;;3.22;;
12493;SDS011;8260;51.422;6.786;2022-08-11T10:15:26;4.65;;;3.75;;
12493;SDS011;8260;51.422;6.786;2022-08-11T10:18:01;5.65;;;3.47;;
12493;SDS011;8260;51.422;6.786;2022-08-11T10:20:49;7.72;;;3.95;;
12493;SDS011;8260;51.422;6.786;2022-08-11T10:23:19;4.20;;;3.60;;
12493;SDS011;8260;51.422;6.786;2022-08-11T10:26:26;5.35;;;3.35;;
12493;SDS011;8260;51.422;6.786;2022-08-11T10:29:13;4.15;;;3.22;;
12493;SDS011;8260;51.422;6.786;2022-08-11T10:32:11;5.47;;;3.10;;
12493;SDS011;8260;51.422;6.786;2022-08-11T10:35:03;4.47;;;3.10;;
12493;SDS011;8260;51.422;6.786;2022-08-11T10:37:35;3.25;;;2.83;;
12493;SDS011;8260;51.422;6.786;2022-08-11T10:40:23;4.07;;;3.67;;
12493;SDS011;8260;51.422;6.786;2022-08-11T10:42:54;6.65;;;3.40;;
12493;SDS011;8260;51.422;6.786;2022-08-11T10:45:31;5.18;;;3.67;;
12493;SDS011;8260;51.422;6.786;2022-08-11T10:48:20;3.90;;;3.50;;
12493;SDS011;8260;51.422;6.786;2022-08-11T10:50:49;6.10;;;3.40;;
12493;SDS011;8260;51.422;6.786;2022-08-11T10:53:37;3.88;;;3.53;;
12493;SDS011;8260;51.422;6.786;2022-08-11T10:56:23;5.82;;;3.20;;
12493;SDS011;8260;51.422;6.786;2022-08-11T10:59:09;6.78;;;3.70;;
12493;SDS011;8260;51.422;6.786;2022-08-11T11:01:41;4.25;;;3.53;;
12493;SDS011;8260;51.422;6.786;2022-08-11T11:04:13;3.72;;;3.42;;
12493;SDS011;8260;51.422;6.786;2022-08-11T11:06:49;4.50;;;3.80;;
12493;SDS011;8260;51.422;6.786;2022-08-11T11:09:19;3.60;;;3.28;;
12493;SDS011;8260;51.422;6.786;2022-08-11T11:11:49;3.90;;;3.60;;
12493;SDS011;8260;51.422;6.786;2022-08-11T11:14:36;6.65;;;3.75;;
12493;SDS011;8260;51.422;6.786;2022-08-11T11:17:27;5.80;;;3.60;;
12493;SDS011;8260;51.422;6.786;2022-08-11T11:20:18;4.70;;;3.42;;
12493;SDS011;8260;51.422;6.786;2022-08-11T11:23:05;6.50;;;3.38;;
12493;SDS011;8260;51.422;6.786;2022-08-11T11:25:37;4.70;;;3.72;;
12493;SDS011;8260;51.422;6.786;2022-08-11T11:28:36;5.78;;;3.42;;
12493;SDS011;8260;51.422;6.786;2022-08-11T11:31:10;6.63;;;3.65;;
12493;SDS011;8260;51.422;6.786;2022-08-11T11:33:46;7.80;;;3.75;;
12493;SDS011;8260;51.422;6.786;2022-08-11T11:36:42;3.40;;;3.10;;
12493;SDS011;8260;51.422;6.786;2022-08-11T11:39:12;9.40;;;3.97;;
12493;SDS011;8260;51.422;6.786;2022-08-11T11:41:41;5.53;;;4.05;;
12493;SDS011;8260;51.422;6.786;2022-08-11T11:44:10;5.40;;;3.50;;
12493;SDS011;8260;51.422;6.786;2022-08-11T11:46:40;6.07;;;3.45;;
12493;SDS011;8260;51.422;6.786;2022-08-11T11:52:06;4.18;;;3.17;;
12493;SDS011;8260;51.422;6.786;2022-08-11T11:54:35;7.22;;;3.53;;
12493;SDS011;8260;51.422;6.786;2022-08-11T11:57:04;4.38;;;3.20;;
12493;SDS011;8260;51.422;6.786;2022-08-11T11:59:47;4.90;;;3.60;;
12493;SDS011;8260;51.422;6.786;2022-08-11T12:02:33;5.93;;;3.47;;
12493;SDS011;8260;51.422;6.786;2022-08-11T12:05:03;4.47;;;3.65;;
12493;SDS011;8260;51.422;6.786;2022-08-11T12:07:33;3.78;;;3.42;;
12493;SDS011;8260;51.422;6.786;2022-08-11T12:10:37;7.28;;;3.45;;
12493;SDS011;8260;51.422;6.786;2022-08-11T12:13:06;3.72;;;3.30;;
12493;SDS011;8260;51.422;6.786;2022-08-11T12:15:52;5.68;;;3.30;;
12493;SDS011;8260;51.422;6.786;2022-08-11T12:18:42;5.80;;;3.38;;
12493;SDS011;8260;51.422;6.786;2022-08-11T12:21:10;6.82;;;3.78;;
12493;SDS011;8260;51.422;6.786;2022-08-11T12:23:43;3.85;;;3.33;;
12493;SDS011;8260;51.422;6.786;2022-08-11T12:26:30;3.97;;;3.65;;
12493;SDS011;8260;51.422;6.786;2022-08-11T12:29:36;6.53;;;4.07;;
12493;SDS011;8260;51.422;6.786;2022-08-11T12:32:09;7.57;;;3.88;;
12493;SDS011;8260;51.422;6.786;2022-08-11T12:37:31;3.83;;;3.53;;
12493;SDS011;8260;51.422;6.786;2022-08-11T12:40:04;4.22;;;3.72;;
12493;SDS011;8260;51.422;6.786;2022-08-11T12:43:13;5.05;;;3.85;;
12493;SDS011;8260;51.422;6.786;2022-08-11T12:46:05;7.22;;;3.80;;
12493;SDS011;8260;51.422;6.786;2022-08-11T12:48:35;8.63;;;3.70;;
12493;SDS011;8260;51.422;6.786;2022-08-11T12:51:27;5.63;;;3.97;;
12493;SDS011;8260;51.422;6.786;2022-08-11T12:54:39;6.25;;;3.55;;
12493;SDS011;8260;51.422;6.786;2022-08-11T12:57:10;5.28;;;3.75;;
12493;SDS011;8260;51.422;6.786;2022-08-11T13:00:03;4.30;;;3.90;;
12493;SDS011;8260;51.422;6.786;2022-08-11T13:02:50;5.30;;;3.38;;
12493;SDS011;8260;51.422;6.786;2022-08-11T13:08:13;4.93;;;3.60;;
12493;SDS011;8260;51.422;6.786;2022-08-11T13:10:43;6.72;;;3.53;;
12493;SDS011;8260;51.422;6.786;2022-08-11T13:13:31;5.38;;;3.97;;
12493;SDS011;8260;51.422;6.786;2022-08-11T13:16:19;4.82;;;3.70;;
12493;SDS011;8260;51.422;6.786;2022-08-11T13:18:49;6.93;;;3.83;;
12493;SDS011;8260;51.422;6.786;2022-08-11T13:21:19;5.13;;;3.55;;
12493;SDS011;8260;51.422;6.786;2022-08-11T13:23:51;4.45;;;3.67;;
12493;SDS011;8260;51.422;6.786;2022-08-11T13:26:27;5.50;;;3.60;;
12493;SDS011;8260;51.422;6.786;2022-08-11T13:29:18;4.25;;;3.53;;
12493;SDS011;8260;51.422;6.786;2022-08-11T13:31:47;4.60;;;3.63;;
12493;SDS011;8260;51.422;6.786;2022-08-11T13:34:16;6.50;;;4.10;;
12493;SDS011;8260;51.422;6.786;2022-08-11T13:36:46;4.45;;;3.63;;
12493;SDS011;8260;51.422;6.786;2022-08-11T13:39:19;6.30;;;3.70;;
12493;SDS011;8260;51.422;6.786;2022-08-11T13:41:50;5.88;;;3.90;;
12493;SDS011;8260;51.422;6.786;2022-08-11T13:44:18;5.82;;;3.88;;
12493;SDS011;8260;51.422;6.786;2022-08-11T13:46:51;4.15;;;3.70;;
12493;SDS011;8260;51.422;6.786;2022-08-11T13:49:20;5.07;;;3.60;;
12493;SDS011;8260;51.422;6.786;2022-08-11T13:51:49;7.38;;;3.58;;
12493;SDS011;8260;51.422;6.786;2022-08-11T13:54:20;5.63;;;3.47;;
12493;SDS011;8260;51.422;6.786;2022-08-11T13:56:49;5.85;;;3.83;;
12493;SDS011;8260;51.422;6.786;2022-08-11T13:59:19;5.00;;;4.00;;
12493;SDS011;8260;51.422;6.786;2022-08-11T14:01:57;4.40;;;4.00;;
12493;SDS011;8260;51.422;6.786;2022-08-11T14:04:49;4.22;;;3.83;;
12493;SDS011;8260;51.422;6.786;2022-08-11T14:07:21;4.15;;;3.75;;
12493;SDS011;8260;51.422;6.786;2022-08-11T14:09:54;7.05;;;3.72;;
12493;SDS011;8260;51.422;6.786;2022-08-11T14:12:24;5.22;;;3.42;;
12493;SDS011;8260;51.422;6.786;2022-08-11T14:15:12;6.72;;;3.63;;
12493;SDS011;8260;51.422;6.786;2022-08-11T14:17:46;7.80;;;3.53;;
12493;SDS011;8260;51.422;6.786;2022-08-11T14:20:18;5.68;;;3.90;;
12493;SDS011;8260;51.422;6.786;2022-08-11T14:23:05;7.22;;;3.60;;
12493;SDS011;8260;51.422;6.786;2022-08-11T14:25:34;7.38;;;4.18;;
12493;SDS011;8260;51.422;6.786;2022-08-11T14:28:27;5.75;;;3.67;;
12493;SDS011;8260;51.422;6.786;2022-08-11T14:31:05;5.90;;;3.97;;
12493;SDS011;8260;51.422;6.786;2022-08-11T14:33:34;8.65;;;4.63;;
12493;SDS011;8260;51.422;6.786;2022-08-11T14:36:24;7.03;;;4.35;;
12493;SDS011;8260;51.422;6.786;2022-08-11T14:41:39;5.88;;;3.88;;
12493;SDS011;8260;51.422;6.786;2022-08-11T14:44:39;4.05;;;3.75;;
12493;SDS011;8260;51.422;6.786;2022-08-11T14:47:25;5.50;;;3.70;;
12493;SDS011;8260;51.422;6.786;2022-08-11T14:49:54;5.15;;;3.90;;
12493;SDS011;8260;51.422;6.786;2022-08-11T14:52:38;4.65;;;3.92;;
12493;SDS011;8260;51.422;6.786;2022-08-11T14:55:07;4.20;;;3.63;;
12493;SDS011;8260;51.422;6.786;2022-08-11T14:57:55;5.57;;;3.63;;
12493;SDS011;8260;51.422;6.786;2022-08-11T15:00:24;4.68;;;4.10;;
12493;SDS011;8260;51.422;6.786;2022-08-11T15:02:53;4.07;;;3.50;;
12493;SDS011;8260;51.422;6.786;2022-08-11T15:05:43;4.88;;;3.25;;
12493;SDS011;8260;51.422;6.786;2022-08-11T15:08:24;5.07;;;4.20;;
12493;SDS011;8260;51.422;6.786;2022-08-11T15:11:06;5.97;;;3.67;;
12493;SDS011;8260;51.422;6.786;2022-08-11T15:13:59;6.95;;;3.92;;
12493;SDS011;8260;51.422;6.786;2022-08-11T15:16:28;4.82;;;3.70;;
12493;SDS011;8260;51.422;6.786;2022-08-11T15:19:14;5.07;;;3.95;;
12493;SDS011;8260;51.422;6.786;2022-08-11T15:21:46;4.25;;;3.33;;
12493;SDS011;8260;51.422;6.786;2022-08-11T15:24:32;4.72;;;3.92;;
12493;SDS011;8260;51.422;6.786;2022-08-11T15:27:02;4.32;;;3.50;;
12493;SDS011;8260;51.422;6.786;2022-08-11T15:29:50;6.00;;;3.75;;
12493;SDS011;8260;51.422;6.786;2022-08-11T15:32:57;8.65;;;3.63;;
12493;SDS011;8260;51.422;6.786;2022-08-11T15:35:45;8.90;;;3.60;;
12493;SDS011;8260;51.422;6.786;2022-08-11T15:38:31;5.78;;;3.50;;
12493;SDS011;8260;51.422;6.786;2022-08-11T15:41:02;6.65;;;3.33;;
12493;SDS011;8260;51.422;6.786;2022-08-11T15:43:50;6.32;;;3.45;;
12493;SDS011;8260;51.422;6.786;2022-08-11T15:46:40;4.43;;;3.53;;
12493;SDS011;8260;51.422;6.786;2022-08-11T15:49:10;3.92;;;3.50;;
12493;SDS011;8260;51.422;6.786;2022-08-11T15:51:47;4.78;;;3.47;;
12493;SDS011;8260;51.422;6.786;2022-08-11T15:54:18;3.58;;;3.25;;
12493;SDS011;8260;51.422;6.786;2022-08-11T15:56:49;4.10;;;3.80;;
12493;SDS011;8260;51.422;6.786;2022-08-11T15:59:20;5.32;;;3.67;;
12493;SDS011;8260;51.422;6.786;2022-08-11T16:02:11;4.65;;;3.72;;
12493;SDS011;8260;51.422;6.786;2022-08-11T16:04:58;5.40;;;4.10;;
12493;SDS011;8260;51.422;6.786;2022-08-11T16:07:28;3.80;;;3.50;;
12493;SDS011;8260;51.422;6.786;2022-08-11T16:10:06;5.32;;;3.85;;
12493;SDS011;8260;51.422;6.786;2022-08-11T16:12:43;4.50;;;3.78;;
12493;SDS011;8260;51.422;6.786;2022-08-11T16:15:44;4.55;;;3.53;;
12493;SDS011;8260;51.422;6.786;2022-08-11T16:18:33;3.95;;;3.63;;
12493;SDS011;8260;51.422;6.786;2022-08-11T16:21:07;5.70;;;3.75;;
12493;SDS011;8260;51.422;6.786;2022-08-11T16:23:57;3.83;;;3.40;;
12493;SDS011;8260;51.422;6.786;2022-08-11T16:26:26;6.30;;;3.58;;
12493;SDS011;8260;51.422;6.786;2022-08-11T16:29:16;5.10;;;4.05;;
12493;SDS011;8260;51.422;6.786;2022-08-11T16:31:46;6.13;;;4.03;;
12493;SDS011;8260;51.422;6.786;2022-08-11T16:34:38;4.60;;;3.75;;
12493;SDS011;8260;51.422;6.786;2022-08-11T16:37:25;4.20;;;3.50;;
12493;SDS011;8260;51.422;6.786;2022-08-11T16:40:12;4.25;;;3.53;;
12493;SDS011;8260;51.422;6.786;2022-08-11T16:42:41;4.68;;;3.65;;
12493;SDS011;8260;51.422;6.786;2022-08-11T16:45:37;6.95;;;3.70;;
12493;SDS011;8260;51.422;6.786;2022-08-11T16:48:24;5.10;;;3.33;;
12493;SDS011;8260;51.422;6.786;2022-08-11T16:51:04;4.88;;;3.35;;
12493;SDS011;8260;51.422;6.786;2022-08-11T16:53:33;4.75;;;3.22;;
12493;SDS011;8260;51.422;6.786;2022-08-11T16:56:24;4.97;;;3.60;;
12493;SDS011;8260;51.422;6.786;2022-08-11T16:58:54;5.70;;;3.58;;
12493;SDS011;8260;51.422;6.786;2022-08-11T17:01:44;4.18;;;3.55;;
12493;SDS011;8260;51.422;6.786;2022-08-11T17:04:15;7.32;;;3.65;;
12493;SDS011;8260;51.422;6.786;2022-08-11T17:07:03;4.40;;;3.78;;
12493;SDS011;8260;51.422;6.786;2022-08-11T17:10:43;4.57;;;3.63;;
12493;SDS011;8260;51.422;6.786;2022-08-11T17:13:30;6.30;;;3.80;;
12493;SDS011;8260;51.422;6.786;2022-08-11T17:16:02;4.28;;;3.92;;
12493;SDS011;8260;51.422;6.786;2022-08-11T17:18:36;3.88;;;3.47;;